sensor_id;sensor_type;location;lat;lon;timestamp;P1;durP1;ratioP1;P2;durP2;ratioP2
73791;SDS011;62122;41.112;16.694;2022-07-29T00:02:41;8.95;;;5.03;;
73791;SDS011;62122;41.112;16.694;2022-07-29T00:05:45;7.35;;;4.20;;
73791;SDS011;62122;41.112;16.694;2022-07-29T00:08:49;8.90;;;5.00;;
73791;SDS011;62122;41.112;16.694;2022-07-29T00:11:53;7.70;;;4.28;;
73791;SDS011;62122;41.112;16.694;2022-07-29T00:15:00;8.43;;;5.05;;
73791;SDS011;62122;41.112;16.694;2022-07-29T00:18:04;8.52;;;4.93;;
73791;SDS011;62122;41.112;16.694;2022-07-29T00:21:07;9.18;;;5.43;;
73791;SDS011;62122;41.112;16.694;2022-07-29T00:24:11;8.65;;;4.97;;
73791;SDS011;62122;41.112;16.694;2022-07-29T00:27:15;9.77;;;5.35;;
73791;SDS011;62122;41.112;16.694;2022-07-29T00:30:20;12.75;;;5.38;;
73791;SDS011;62122;41.112;16.694;2022-07-29T00:33:23;7.93;;;5.05;;
73791;SDS011;62122;41.112;16.694;2022-07-29T00:36:28;10.00;;;5.30;;
73791;SDS011;62122;41.112;16.694;2022-07-29T00:39:32;7.90;;;4.90;;
73791;SDS011;62122;41.112;16.694;2022-07-29T00:42:43;8.52;;;5.05;;
73791;SDS011;62122;41.112;16.694;2022-07-29T00:45:50;8.18;;;4.90;;
73791;SDS011;62122;41.112;16.694;2022-07-29T00:48:54;9.82;;;4.85;;
73791;SDS011;62122;41.112;16.694;2022-07-29T00:51:58;8.55;;;5.00;;
73791;SDS011;62122;41.112;16.694;2022-07-29T00:55:06;10.88;;;5.07;;
73791;SDS011;62122;41.112;16.694;2022-07-29T00:58:12;8.85;;;5.15;;
73791;SDS011;62122;41.112;16.694;2022-07-29T01:01:17;9.80;;;4.85;;
73791;SDS011;62122;41.112;16.694;2022-07-29T01:04:21;8.43;;;5.00;;
73791;SDS011;62122;41.112;16.694;2022-07-29T01:07:25;8.02;;;4.72;;
73791;SDS011;62122;41.112;16.694;2022-07-29T01:10:30;6.70;;;4.95;;
73791;SDS011;62122;41.112;16.694;2022-07-29T01:13:34;8.48;;;4.57;;
73791;SDS011;62122;41.112;16.694;2022-07-29T01:16:46;8.57;;;4.97;;
73791;SDS011;62122;41.112;16.694;2022-07-29T01:20:03;7.20;;;4.47;;
73791;SDS011;62122;41.112;16.694;2022-07-29T01:23:25;7.55;;;4.63;;
73791;SDS011;62122;41.112;16.694;2022-07-29T01:29:55;10.83;;;5.33;;
73791;SDS011;62122;41.112;16.694;2022-07-29T01:33:03;8.70;;;5.30;;
73791;SDS011;62122;41.112;16.694;2022-07-29T01:36:11;9.60;;;5.22;;
73791;SDS011;62122;41.112;16.694;2022-07-29T01:42:44;10.13;;;5.90;;
73791;SDS011;62122;41.112;16.694;2022-07-29T01:46:13;8.55;;;5.43;;
73791;SDS011;62122;41.112;16.694;2022-07-29T01:49:20;10.98;;;5.63;;
73791;SDS011;62122;41.112;16.694;2022-07-29T01:52:33;9.65;;;5.50;;
73791;SDS011;62122;41.112;16.694;2022-07-29T01:55:42;9.25;;;5.47;;
73791;SDS011;62122;41.112;16.694;2022-07-29T01:58:48;9.43;;;5.65;;
73791;SDS011;62122;41.112;16.694;2022-07-29T02:01:53;9.85;;;5.85;;
73791;SDS011;62122;41.112;16.694;2022-07-29T02:05:01;8.93;;;5.55;;
73791;SDS011;62122;41.112;16.694;2022-07-29T02:08:06;11.15;;;5.57;;
73791;SDS011;62122;41.112;16.694;2022-07-29T02:11:12;9.77;;;5.50;;
73791;SDS011;62122;41.112;16.694;2022-07-29T02:14:17;9.32;;;5.47;;
73791;SDS011;62122;41.112;16.694;2022-07-29T02:17:26;9.00;;;5.80;;
73791;SDS011;62122;41.112;16.694;2022-07-29T02:20:34;10.23;;;5.85;;
73791;SDS011;62122;41.112;16.694;2022-07-29T02:23:39;10.77;;;5.95;;
73791;SDS011;62122;41.112;16.694;2022-07-29T02:26:44;10.95;;;5.68;;
73791;SDS011;62122;41.112;16.694;2022-07-29T02:29:48;9.30;;;7.88;;
73791;SDS011;62122;41.112;16.694;2022-07-29T02:32:53;9.63;;;6.05;;
73791;SDS011;62122;41.112;16.694;2022-07-29T02:35:59;8.95;;;6.25;;
73791;SDS011;62122;41.112;16.694;2022-07-29T02:39:06;12.38;;;6.20;;
73791;SDS011;62122;41.112;16.694;2022-07-29T02:42:13;9.82;;;5.60;;
73791;SDS011;62122;41.112;16.694;2022-07-29T02:45:19;10.48;;;6.38;;
73791;SDS011;62122;41.112;16.694;2022-07-29T02:48:28;14.52;;;7.53;;
73791;SDS011;62122;41.112;16.694;2022-07-29T02:51:43;10.27;;;6.38;;
73791;SDS011;62122;41.112;16.694;2022-07-29T02:54:53;9.82;;;5.72;;
73791;SDS011;62122;41.112;16.694;2022-07-29T02:58:05;14.10;;;6.07;;
73791;SDS011;62122;41.112;16.694;2022-07-29T03:01:25;10.27;;;6.68;;
73791;SDS011;62122;41.112;16.694;2022-07-29T03:04:34;9.50;;;6.32;;
73791;SDS011;62122;41.112;16.694;2022-07-29T03:07:39;13.98;;;6.43;;
73791;SDS011;62122;41.112;16.694;2022-07-29T03:10:44;9.63;;;6.00;;
73791;SDS011;62122;41.112;16.694;2022-07-29T03:13:50;10.43;;;6.65;;
73791;SDS011;62122;41.112;16.694;2022-07-29T03:16:55;9.63;;;6.28;;
73791;SDS011;62122;41.112;16.694;2022-07-29T03:20:00;11.48;;;6.30;;
73791;SDS011;62122;41.112;16.694;2022-07-29T03:23:04;10.07;;;6.45;;
73791;SDS011;62122;41.112;16.694;2022-07-29T03:26:08;10.95;;;5.90;;
73791;SDS011;62122;41.112;16.694;2022-07-29T03:29:12;12.23;;;6.22;;
73791;SDS011;62122;41.112;16.694;2022-07-29T03:32:16;13.02;;;6.43;;
73791;SDS011;62122;41.112;16.694;2022-07-29T03:35:20;11.93;;;6.38;;
73791;SDS011;62122;41.112;16.694;2022-07-29T03:38:25;13.20;;;6.78;;
73791;SDS011;62122;41.112;16.694;2022-07-29T03:41:33;10.82;;;6.00;;
73791;SDS011;62122;41.112;16.694;2022-07-29T03:44:39;10.15;;;5.82;;
73791;SDS011;62122;41.112;16.694;2022-07-29T03:47:48;17.88;;;6.93;;
73791;SDS011;62122;41.112;16.694;2022-07-29T03:50:55;20.33;;;7.60;;
73791;SDS011;62122;41.112;16.694;2022-07-29T03:54:01;15.55;;;7.00;;
73791;SDS011;62122;41.112;16.694;2022-07-29T03:57:06;15.70;;;6.22;;
73791;SDS011;62122;41.112;16.694;2022-07-29T04:00:13;10.85;;;6.78;;
73791;SDS011;62122;41.112;16.694;2022-07-29T04:03:18;15.18;;;6.97;;
73791;SDS011;62122;41.112;16.694;2022-07-29T04:06:23;11.25;;;6.97;;
73791;SDS011;62122;41.112;16.694;2022-07-29T04:09:27;16.45;;;7.10;;
73791;SDS011;62122;41.112;16.694;2022-07-29T04:12:30;17.88;;;6.93;;
73791;SDS011;62122;41.112;16.694;2022-07-29T04:15:34;17.45;;;6.65;;
73791;SDS011;62122;41.112;16.694;2022-07-29T04:18:38;29.15;;;8.45;;
73791;SDS011;62122;41.112;16.694;2022-07-29T04:21:42;26.85;;;9.65;;
73791;SDS011;62122;41.112;16.694;2022-07-29T04:24:48;22.00;;;11.23;;
73791;SDS011;62122;41.112;16.694;2022-07-29T04:27:52;21.90;;;11.30;;
73791;SDS011;62122;41.112;16.694;2022-07-29T04:31:05;17.13;;;8.27;;
73791;SDS011;62122;41.112;16.694;2022-07-29T04:34:10;12.90;;;7.68;;
73791;SDS011;62122;41.112;16.694;2022-07-29T04:37:15;13.80;;;8.30;;
73791;SDS011;62122;41.112;16.694;2022-07-29T04:40:19;14.05;;;7.72;;
73791;SDS011;62122;41.112;16.694;2022-07-29T04:43:24;15.68;;;7.70;;
73791;SDS011;62122;41.112;16.694;2022-07-29T04:46:28;19.30;;;7.80;;
73791;SDS011;62122;41.112;16.694;2022-07-29T04:49:32;15.02;;;7.43;;
73791;SDS011;62122;41.112;16.694;2022-07-29T04:52:36;13.60;;;7.65;;
73791;SDS011;62122;41.112;16.694;2022-07-29T04:55:40;12.70;;;7.32;;
73791;SDS011;62122;41.112;16.694;2022-07-29T04:58:44;12.38;;;7.25;;
73791;SDS011;62122;41.112;16.694;2022-07-29T05:01:48;16.02;;;7.50;;
73791;SDS011;62122;41.112;16.694;2022-07-29T05:04:52;14.40;;;7.40;;
73791;SDS011;62122;41.112;16.694;2022-07-29T05:07:56;20.33;;;8.52;;
73791;SDS011;62122;41.112;16.694;2022-07-29T05:11:00;15.40;;;8.15;;
73791;SDS011;62122;41.112;16.694;2022-07-29T05:14:04;16.48;;;7.85;;
73791;SDS011;62122;41.112;16.694;2022-07-29T05:17:08;20.63;;;8.00;;
73791;SDS011;62122;41.112;16.694;2022-07-29T05:20:12;20.80;;;8.52;;
73791;SDS011;62122;41.112;16.694;2022-07-29T05:23:16;14.93;;;7.28;;
73791;SDS011;62122;41.112;16.694;2022-07-29T05:26:21;12.10;;;8.35;;
73791;SDS011;62122;41.112;16.694;2022-07-29T05:29:25;12.25;;;7.15;;
73791;SDS011;62122;41.112;16.694;2022-07-29T05:32:29;16.63;;;7.70;;
73791;SDS011;62122;41.112;16.694;2022-07-29T05:35:33;16.80;;;7.88;;
73791;SDS011;62122;41.112;16.694;2022-07-29T05:38:38;16.65;;;7.50;;
73791;SDS011;62122;41.112;16.694;2022-07-29T05:41:42;16.63;;;7.50;;
73791;SDS011;62122;41.112;16.694;2022-07-29T05:44:46;17.75;;;8.10;;
73791;SDS011;62122;41.112;16.694;2022-07-29T05:47:50;19.38;;;7.88;;
73791;SDS011;62122;41.112;16.694;2022-07-29T05:50:55;13.77;;;8.50;;
73791;SDS011;62122;41.112;16.694;2022-07-29T05:53:58;14.18;;;8.32;;
73791;SDS011;62122;41.112;16.694;2022-07-29T05:57:02;17.65;;;7.65;;
73791;SDS011;62122;41.112;16.694;2022-07-29T06:00:06;15.02;;;7.60;;
73791;SDS011;62122;41.112;16.694;2022-07-29T06:03:16;14.50;;;7.32;;
73791;SDS011;62122;41.112;16.694;2022-07-29T06:06:20;17.48;;;7.35;;
73791;SDS011;62122;41.112;16.694;2022-07-29T06:09:24;10.50;;;6.50;;
73791;SDS011;62122;41.112;16.694;2022-07-29T06:12:27;10.93;;;6.00;;
73791;SDS011;62122;41.112;16.694;2022-07-29T06:15:31;13.65;;;6.43;;
73791;SDS011;62122;41.112;16.694;2022-07-29T06:18:36;18.15;;;7.15;;
73791;SDS011;62122;41.112;16.694;2022-07-29T06:21:43;15.75;;;6.63;;
73791;SDS011;62122;41.112;16.694;2022-07-29T06:24:48;13.13;;;6.93;;
73791;SDS011;62122;41.112;16.694;2022-07-29T06:27:51;17.13;;;6.35;;
73791;SDS011;62122;41.112;16.694;2022-07-29T06:30:56;12.38;;;5.72;;
73791;SDS011;62122;41.112;16.694;2022-07-29T06:34:00;12.77;;;6.05;;
73791;SDS011;62122;41.112;16.694;2022-07-29T06:37:07;12.68;;;5.25;;
73791;SDS011;62122;41.112;16.694;2022-07-29T06:40:11;13.30;;;6.30;;
73791;SDS011;62122;41.112;16.694;2022-07-29T06:43:35;14.10;;;5.53;;
73791;SDS011;62122;41.112;16.694;2022-07-29T06:46:44;12.52;;;5.68;;
73791;SDS011;62122;41.112;16.694;2022-07-29T06:49:52;9.80;;;4.70;;
73791;SDS011;62122;41.112;16.694;2022-07-29T06:52:57;8.77;;;5.35;;
73791;SDS011;62122;41.112;16.694;2022-07-29T06:56:01;14.63;;;6.00;;
73791;SDS011;62122;41.112;16.694;2022-07-29T06:59:07;14.02;;;5.60;;
73791;SDS011;62122;41.112;16.694;2022-07-29T07:02:13;9.77;;;4.68;;
73791;SDS011;62122;41.112;16.694;2022-07-29T07:05:17;11.73;;;6.10;;
73791;SDS011;62122;41.112;16.694;2022-07-29T07:08:21;10.13;;;5.20;;
73791;SDS011;62122;41.112;16.694;2022-07-29T07:11:27;10.63;;;5.00;;
73791;SDS011;62122;41.112;16.694;2022-07-29T07:14:32;12.20;;;5.32;;
73791;SDS011;62122;41.112;16.694;2022-07-29T07:17:37;10.10;;;5.38;;
73791;SDS011;62122;41.112;16.694;2022-07-29T07:20:42;11.07;;;5.38;;
73791;SDS011;62122;41.112;16.694;2022-07-29T07:23:47;9.77;;;5.00;;
73791;SDS011;62122;41.112;16.694;2022-07-29T07:26:51;9.67;;;5.80;;
73791;SDS011;62122;41.112;16.694;2022-07-29T07:29:55;12.38;;;6.00;;
73791;SDS011;62122;41.112;16.694;2022-07-29T07:32:59;9.27;;;4.60;;
73791;SDS011;62122;41.112;16.694;2022-07-29T07:36:03;12.13;;;5.95;;
73791;SDS011;62122;41.112;16.694;2022-07-29T07:39:07;12.50;;;6.68;;
73791;SDS011;62122;41.112;16.694;2022-07-29T07:42:11;9.47;;;5.27;;
73791;SDS011;62122;41.112;16.694;2022-07-29T07:45:16;12.50;;;5.40;;
73791;SDS011;62122;41.112;16.694;2022-07-29T07:48:21;12.77;;;5.47;;
73791;SDS011;62122;41.112;16.694;2022-07-29T07:51:25;10.02;;;4.85;;
73791;SDS011;62122;41.112;16.694;2022-07-29T07:54:30;10.15;;;4.20;;
73791;SDS011;62122;41.112;16.694;2022-07-29T07:57:34;11.37;;;5.00;;
73791;SDS011;62122;41.112;16.694;2022-07-29T08:00:40;12.63;;;4.47;;
73791;SDS011;62122;41.112;16.694;2022-07-29T08:03:45;14.73;;;4.78;;
73791;SDS011;62122;41.112;16.694;2022-07-29T08:06:51;12.63;;;4.90;;
73791;SDS011;62122;41.112;16.694;2022-07-29T08:09:58;9.45;;;5.15;;
73791;SDS011;62122;41.112;16.694;2022-07-29T08:13:06;9.17;;;4.67;;
73791;SDS011;62122;41.112;16.694;2022-07-29T08:16:14;11.20;;;4.80;;
73791;SDS011;62122;41.112;16.694;2022-07-29T08:19:22;11.13;;;4.50;;
73791;SDS011;62122;41.112;16.694;2022-07-29T08:22:26;8.40;;;4.40;;
73791;SDS011;62122;41.112;16.694;2022-07-29T08:25:31;11.80;;;4.60;;
73791;SDS011;62122;41.112;16.694;2022-07-29T08:28:45;12.03;;;4.77;;
73791;SDS011;62122;41.112;16.694;2022-07-29T08:31:53;11.18;;;5.18;;
73791;SDS011;62122;41.112;16.694;2022-07-29T08:34:57;9.73;;;4.15;;
73791;SDS011;62122;41.112;16.694;2022-07-29T08:38:01;7.70;;;4.20;;
73791;SDS011;62122;41.112;16.694;2022-07-29T08:41:06;10.07;;;4.63;;
73791;SDS011;62122;41.112;16.694;2022-07-29T08:44:10;9.70;;;5.87;;
73791;SDS011;62122;41.112;16.694;2022-07-29T08:47:35;9.60;;;4.50;;
73791;SDS011;62122;41.112;16.694;2022-07-29T08:50:43;11.98;;;5.53;;
73791;SDS011;62122;41.112;16.694;2022-07-29T08:53:49;9.25;;;4.93;;
73791;SDS011;62122;41.112;16.694;2022-07-29T08:56:55;9.63;;;5.10;;
73791;SDS011;62122;41.112;16.694;2022-07-29T09:00:08;9.90;;;5.30;;
73791;SDS011;62122;41.112;16.694;2022-07-29T09:03:18;10.73;;;4.88;;
73791;SDS011;62122;41.112;16.694;2022-07-29T09:06:23;9.75;;;5.32;;
73791;SDS011;62122;41.112;16.694;2022-07-29T09:09:35;8.18;;;4.82;;
73791;SDS011;62122;41.112;16.694;2022-07-29T09:12:39;10.10;;;4.80;;
73791;SDS011;62122;41.112;16.694;2022-07-29T09:15:46;8.57;;;4.70;;
73791;SDS011;62122;41.112;16.694;2022-07-29T09:18:49;9.65;;;6.13;;
73791;SDS011;62122;41.112;16.694;2022-07-29T09:21:54;10.23;;;5.25;;
73791;SDS011;62122;41.112;16.694;2022-07-29T09:25:02;11.13;;;5.47;;
73791;SDS011;62122;41.112;16.694;2022-07-29T09:28:11;9.70;;;5.30;;
73791;SDS011;62122;41.112;16.694;2022-07-29T09:31:16;9.53;;;5.70;;
73791;SDS011;62122;41.112;16.694;2022-07-29T09:34:22;11.05;;;5.95;;
73791;SDS011;62122;41.112;16.694;2022-07-29T09:37:31;9.57;;;5.63;;
73791;SDS011;62122;41.112;16.694;2022-07-29T09:40:36;13.07;;;6.13;;
73791;SDS011;62122;41.112;16.694;2022-07-29T09:43:52;11.20;;;5.50;;
73791;SDS011;62122;41.112;16.694;2022-07-29T09:47:02;12.83;;;4.80;;
73791;SDS011;62122;41.112;16.694;2022-07-29T09:50:12;10.88;;;5.68;;
73791;SDS011;62122;41.112;16.694;2022-07-29T09:56:38;9.25;;;4.68;;
73791;SDS011;62122;41.112;16.694;2022-07-29T09:59:47;7.45;;;5.07;;
73791;SDS011;62122;41.112;16.694;2022-07-29T10:03:00;9.33;;;5.60;;
73791;SDS011;62122;41.112;16.694;2022-07-29T10:06:06;7.53;;;4.18;;
73791;SDS011;62122;41.112;16.694;2022-07-29T10:09:14;8.32;;;4.45;;
73791;SDS011;62122;41.112;16.694;2022-07-29T10:12:19;8.48;;;5.55;;
73791;SDS011;62122;41.112;16.694;2022-07-29T10:15:24;10.02;;;4.70;;
73791;SDS011;62122;41.112;16.694;2022-07-29T10:18:29;8.27;;;4.47;;
73791;SDS011;62122;41.112;16.694;2022-07-29T10:21:34;7.85;;;4.50;;
73791;SDS011;62122;41.112;16.694;2022-07-29T10:24:42;10.10;;;4.78;;
73791;SDS011;62122;41.112;16.694;2022-07-29T10:27:47;7.78;;;4.72;;
73791;SDS011;62122;41.112;16.694;2022-07-29T10:30:52;8.02;;;4.57;;
73791;SDS011;62122;41.112;16.694;2022-07-29T10:44:54;7.90;;;4.95;;
73791;SDS011;62122;41.112;16.694;2022-07-29T10:48:03;13.50;;;4.63;;
73791;SDS011;62122;41.112;16.694;2022-07-29T10:51:09;8.57;;;4.77;;
73791;SDS011;62122;41.112;16.694;2022-07-29T10:54:13;8.48;;;4.85;;
73791;SDS011;62122;41.112;16.694;2022-07-29T10:57:28;11.80;;;5.40;;
73791;SDS011;62122;41.112;16.694;2022-07-29T11:00:35;8.13;;;5.00;;
73791;SDS011;62122;41.112;16.694;2022-07-29T11:03:46;8.50;;;5.43;;
73791;SDS011;62122;41.112;16.694;2022-07-29T11:17:00;9.15;;;4.72;;
73791;SDS011;62122;41.112;16.694;2022-07-29T11:23:37;9.53;;;4.93;;
73791;SDS011;62122;41.112;16.694;2022-07-29T11:26:42;9.65;;;5.60;;
73791;SDS011;62122;41.112;16.694;2022-07-29T11:29:49;9.90;;;5.15;;
73791;SDS011;62122;41.112;16.694;2022-07-29T11:32:59;9.02;;;5.10;;
73791;SDS011;62122;41.112;16.694;2022-07-29T11:39:25;8.37;;;5.30;;
73791;SDS011;62122;41.112;16.694;2022-07-29T11:45:47;10.60;;;5.00;;
73791;SDS011;62122;41.112;16.694;2022-07-29T11:48:51;7.78;;;5.10;;
73791;SDS011;62122;41.112;16.694;2022-07-29T11:51:55;7.82;;;4.78;;
73791;SDS011;62122;41.112;16.694;2022-07-29T11:55:02;9.07;;;5.10;;
73791;SDS011;62122;41.112;16.694;2022-07-29T11:58:08;10.57;;;5.25;;
73791;SDS011;62122;41.112;16.694;2022-07-29T12:01:13;8.70;;;5.40;;
73791;SDS011;62122;41.112;16.694;2022-07-29T12:04:19;8.13;;;5.13;;
73791;SDS011;62122;41.112;16.694;2022-07-29T12:07:30;10.75;;;5.68;;
73791;SDS011;62122;41.112;16.694;2022-07-29T12:10:35;10.23;;;5.40;;
73791;SDS011;62122;41.112;16.694;2022-07-29T12:13:39;9.50;;;5.43;;
73791;SDS011;62122;41.112;16.694;2022-07-29T12:16:43;9.82;;;5.07;;
73791;SDS011;62122;41.112;16.694;2022-07-29T12:19:47;9.35;;;5.45;;
73791;SDS011;62122;41.112;16.694;2022-07-29T12:22:53;9.93;;;5.00;;
73791;SDS011;62122;41.112;16.694;2022-07-29T12:25:59;9.20;;;5.63;;
73791;SDS011;62122;41.112;16.694;2022-07-29T12:29:03;9.80;;;5.40;;
73791;SDS011;62122;41.112;16.694;2022-07-29T12:32:06;7.97;;;5.30;;
73791;SDS011;62122;41.112;16.694;2022-07-29T12:35:15;7.32;;;5.25;;
73791;SDS011;62122;41.112;16.694;2022-07-29T12:38:22;8.43;;;5.63;;
73791;SDS011;62122;41.112;16.694;2022-07-29T12:41:29;10.40;;;5.70;;
73791;SDS011;62122;41.112;16.694;2022-07-29T12:44:43;13.98;;;5.53;;
73791;SDS011;62122;41.112;16.694;2022-07-29T12:47:51;8.88;;;5.70;;
73791;SDS011;62122;41.112;16.694;2022-07-29T12:50:56;8.48;;;5.30;;
73791;SDS011;62122;41.112;16.694;2022-07-29T12:54:03;8.20;;;5.35;;
73791;SDS011;62122;41.112;16.694;2022-07-29T12:57:11;9.73;;;5.63;;
73791;SDS011;62122;41.112;16.694;2022-07-29T13:00:15;11.15;;;5.10;;
73791;SDS011;62122;41.112;16.694;2022-07-29T13:03:19;8.60;;;4.47;;
73791;SDS011;62122;41.112;16.694;2022-07-29T13:06:35;7.55;;;4.38;;
73791;SDS011;62122;41.112;16.694;2022-07-29T13:09:47;8.80;;;4.15;;
73791;SDS011;62122;41.112;16.694;2022-07-29T13:13:09;6.73;;;3.90;;
73791;SDS011;62122;41.112;16.694;2022-07-29T13:16:14;10.60;;;5.10;;
73791;SDS011;62122;41.112;16.694;2022-07-29T13:19:18;8.48;;;4.35;;
73791;SDS011;62122;41.112;16.694;2022-07-29T13:22:23;10.80;;;4.07;;
73791;SDS011;62122;41.112;16.694;2022-07-29T13:25:30;7.63;;;4.07;;
73791;SDS011;62122;41.112;16.694;2022-07-29T13:28:35;7.13;;;3.93;;
73791;SDS011;62122;41.112;16.694;2022-07-29T13:31:39;6.28;;;3.65;;
73791;SDS011;62122;41.112;16.694;2022-07-29T13:34:43;6.03;;;3.63;;
73791;SDS011;62122;41.112;16.694;2022-07-29T13:37:47;7.80;;;4.10;;
73791;SDS011;62122;41.112;16.694;2022-07-29T13:40:50;7.80;;;3.90;;
73791;SDS011;62122;41.112;16.694;2022-07-29T13:43:54;8.57;;;4.00;;
73791;SDS011;62122;41.112;16.694;2022-07-29T13:46:58;7.65;;;4.53;;
73791;SDS011;62122;41.112;16.694;2022-07-29T13:50:03;7.30;;;3.90;;
73791;SDS011;62122;41.112;16.694;2022-07-29T13:53:09;7.22;;;4.68;;
73791;SDS011;62122;41.112;16.694;2022-07-29T13:56:13;7.03;;;3.65;;
73791;SDS011;62122;41.112;16.694;2022-07-29T13:59:17;9.60;;;3.63;;
73791;SDS011;62122;41.112;16.694;2022-07-29T14:02:21;8.23;;;4.20;;
73791;SDS011;62122;41.112;16.694;2022-07-29T14:05:26;6.20;;;3.72;;
73791;SDS011;62122;41.112;16.694;2022-07-29T14:08:30;8.00;;;3.80;;
73791;SDS011;62122;41.112;16.694;2022-07-29T14:11:35;5.47;;;3.67;;
73791;SDS011;62122;41.112;16.694;2022-07-29T14:14:41;8.87;;;4.10;;
73791;SDS011;62122;41.112;16.694;2022-07-29T14:17:45;9.35;;;4.22;;
73791;SDS011;62122;41.112;16.694;2022-07-29T14:20:50;8.98;;;3.80;;
73791;SDS011;62122;41.112;16.694;2022-07-29T14:23:55;6.32;;;3.70;;
73791;SDS011;62122;41.112;16.694;2022-07-29T14:26:58;7.18;;;3.83;;
73791;SDS011;62122;41.112;16.694;2022-07-29T14:30:02;7.33;;;3.50;;
73791;SDS011;62122;41.112;16.694;2022-07-29T14:33:08;6.13;;;3.70;;
73791;SDS011;62122;41.112;16.694;2022-07-29T14:36:12;4.53;;;2.70;;
73791;SDS011;62122;41.112;16.694;2022-07-29T14:39:16;5.95;;;3.20;;
73791;SDS011;62122;41.112;16.694;2022-07-29T14:42:22;5.88;;;3.70;;
73791;SDS011;62122;41.112;16.694;2022-07-29T14:45:28;6.33;;;3.40;;
73791;SDS011;62122;41.112;16.694;2022-07-29T14:49:14;7.20;;;3.83;;
73791;SDS011;62122;41.112;16.694;2022-07-29T14:52:21;5.32;;;2.90;;
73791;SDS011;62122;41.112;16.694;2022-07-29T14:55:26;8.48;;;3.80;;
73791;SDS011;62122;41.112;16.694;2022-07-29T14:58:30;7.20;;;3.75;;
73791;SDS011;62122;41.112;16.694;2022-07-29T15:01:34;7.33;;;3.90;;
73791;SDS011;62122;41.112;16.694;2022-07-29T15:04:37;6.50;;;3.42;;
73791;SDS011;62122;41.112;16.694;2022-07-29T15:07:42;7.05;;;3.80;;
73791;SDS011;62122;41.112;16.694;2022-07-29T15:10:46;6.95;;;3.85;;
73791;SDS011;62122;41.112;16.694;2022-07-29T15:13:50;7.10;;;4.00;;
73791;SDS011;62122;41.112;16.694;2022-07-29T15:16:54;7.83;;;4.07;;
73791;SDS011;62122;41.112;16.694;2022-07-29T15:19:58;8.40;;;4.05;;
73791;SDS011;62122;41.112;16.694;2022-07-29T15:23:01;8.43;;;4.60;;
73791;SDS011;62122;41.112;16.694;2022-07-29T15:26:06;7.55;;;4.18;;
73791;SDS011;62122;41.112;16.694;2022-07-29T15:29:10;7.55;;;3.92;;
73791;SDS011;62122;41.112;16.694;2022-07-29T15:32:13;8.60;;;4.00;;
73791;SDS011;62122;41.112;16.694;2022-07-29T15:35:18;7.78;;;3.85;;
73791;SDS011;62122;41.112;16.694;2022-07-29T15:38:22;7.45;;;3.92;;
73791;SDS011;62122;41.112;16.694;2022-07-29T15:41:25;7.50;;;4.38;;
73791;SDS011;62122;41.112;16.694;2022-07-29T15:44:30;6.78;;;3.83;;
73791;SDS011;62122;41.112;16.694;2022-07-29T15:47:34;8.87;;;4.20;;
73791;SDS011;62122;41.112;16.694;2022-07-29T15:50:38;6.50;;;3.80;;
73791;SDS011;62122;41.112;16.694;2022-07-29T15:53:42;5.57;;;3.70;;
73791;SDS011;62122;41.112;16.694;2022-07-29T15:56:46;9.05;;;4.45;;
73791;SDS011;62122;41.112;16.694;2022-07-29T15:59:50;6.22;;;3.85;;
73791;SDS011;62122;41.112;16.694;2022-07-29T16:02:55;7.13;;;4.47;;
73791;SDS011;62122;41.112;16.694;2022-07-29T16:05:58;6.38;;;3.97;;
73791;SDS011;62122;41.112;16.694;2022-07-29T16:09:02;10.35;;;4.60;;
73791;SDS011;62122;41.112;16.694;2022-07-29T16:12:07;10.95;;;4.18;;
73791;SDS011;62122;41.112;16.694;2022-07-29T16:15:11;10.32;;;4.07;;
73791;SDS011;62122;41.112;16.694;2022-07-29T16:18:15;11.03;;;4.43;;
73791;SDS011;62122;41.112;16.694;2022-07-29T16:21:19;9.60;;;5.70;;
73791;SDS011;62122;41.112;16.694;2022-07-29T16:24:25;7.93;;;3.70;;
73791;SDS011;62122;41.112;16.694;2022-07-29T16:27:32;7.40;;;3.90;;
73791;SDS011;62122;41.112;16.694;2022-07-29T16:30:36;8.07;;;4.00;;
73791;SDS011;62122;41.112;16.694;2022-07-29T16:33:40;6.50;;;4.20;;
73791;SDS011;62122;41.112;16.694;2022-07-29T16:36:44;6.65;;;4.10;;
73791;SDS011;62122;41.112;16.694;2022-07-29T16:39:48;9.13;;;3.80;;
73791;SDS011;62122;41.112;16.694;2022-07-29T16:42:51;7.05;;;3.85;;
73791;SDS011;62122;41.112;16.694;2022-07-29T16:45:55;10.25;;;6.13;;
73791;SDS011;62122;41.112;16.694;2022-07-29T16:48:59;8.00;;;4.07;;
73791;SDS011;62122;41.112;16.694;2022-07-29T16:52:03;10.05;;;4.07;;
73791;SDS011;62122;41.112;16.694;2022-07-29T16:55:07;7.35;;;4.50;;
73791;SDS011;62122;41.112;16.694;2022-07-29T16:58:12;9.27;;;5.28;;
73791;SDS011;62122;41.112;16.694;2022-07-29T17:01:16;10.20;;;4.95;;
73791;SDS011;62122;41.112;16.694;2022-07-29T17:04:20;7.13;;;4.10;;
73791;SDS011;62122;41.112;16.694;2022-07-29T17:07:23;7.82;;;4.50;;
73791;SDS011;62122;41.112;16.694;2022-07-29T17:10:27;9.15;;;4.95;;
73791;SDS011;62122;41.112;16.694;2022-07-29T17:13:32;8.52;;;4.65;;
73791;SDS011;62122;41.112;16.694;2022-07-29T17:16:36;6.70;;;3.88;;
73791;SDS011;62122;41.112;16.694;2022-07-29T17:19:40;8.90;;;5.30;;
73791;SDS011;62122;41.112;16.694;2022-07-29T17:22:45;9.93;;;5.68;;
73791;SDS011;62122;41.112;16.694;2022-07-29T17:25:50;8.90;;;6.07;;
73791;SDS011;62122;41.112;16.694;2022-07-29T17:28:54;12.02;;;5.15;;
73791;SDS011;62122;41.112;16.694;2022-07-29T17:31:58;9.25;;;4.50;;
73791;SDS011;62122;41.112;16.694;2022-07-29T17:35:02;6.40;;;4.13;;
73791;SDS011;62122;41.112;16.694;2022-07-29T17:38:30;6.88;;;4.60;;
73791;SDS011;62122;41.112;16.694;2022-07-29T17:41:34;9.10;;;5.95;;
73791;SDS011;62122;41.112;16.694;2022-07-29T17:44:38;6.32;;;4.18;;
73791;SDS011;62122;41.112;16.694;2022-07-29T17:47:42;8.95;;;4.38;;
73791;SDS011;62122;41.112;16.694;2022-07-29T17:50:47;7.93;;;4.47;;
73791;SDS011;62122;41.112;16.694;2022-07-29T17:53:52;7.40;;;3.95;;
73791;SDS011;62122;41.112;16.694;2022-07-29T17:56:57;8.13;;;3.95;;
73791;SDS011;62122;41.112;16.694;2022-07-29T18:00:02;8.57;;;4.20;;
73791;SDS011;62122;41.112;16.694;2022-07-29T18:03:08;8.18;;;3.80;;
73791;SDS011;62122;41.112;16.694;2022-07-29T18:06:11;7.30;;;3.97;;
73791;SDS011;62122;41.112;16.694;2022-07-29T18:09:16;7.43;;;4.07;;
73791;SDS011;62122;41.112;16.694;2022-07-29T18:12:20;9.40;;;4.10;;
73791;SDS011;62122;41.112;16.694;2022-07-29T18:15:24;6.43;;;3.78;;
73791;SDS011;62122;41.112;16.694;2022-07-29T18:18:28;6.82;;;3.92;;
73791;SDS011;62122;41.112;16.694;2022-07-29T18:21:32;9.30;;;4.70;;
73791;SDS011;62122;41.112;16.694;2022-07-29T18:24:36;8.02;;;4.63;;
73791;SDS011;62122;41.112;16.694;2022-07-29T18:27:40;10.02;;;4.80;;
73791;SDS011;62122;41.112;16.694;2022-07-29T18:30:46;8.13;;;4.63;;
73791;SDS011;62122;41.112;16.694;2022-07-29T18:33:50;9.95;;;4.03;;
73791;SDS011;62122;41.112;16.694;2022-07-29T18:36:54;7.70;;;4.50;;
73791;SDS011;62122;41.112;16.694;2022-07-29T18:39:59;8.40;;;4.47;;
73791;SDS011;62122;41.112;16.694;2022-07-29T18:43:03;8.45;;;4.53;;
73791;SDS011;62122;41.112;16.694;2022-07-29T18:46:07;9.85;;;5.88;;
73791;SDS011;62122;41.112;16.694;2022-07-29T18:49:12;9.38;;;5.28;;
73791;SDS011;62122;41.112;16.694;2022-07-29T18:52:16;8.38;;;4.68;;
73791;SDS011;62122;41.112;16.694;2022-07-29T18:55:20;8.10;;;5.10;;
73791;SDS011;62122;41.112;16.694;2022-07-29T18:58:24;8.18;;;4.28;;